createdAt,value
2022-11-17T00:00:42.612Z,8.80
2022-11-17T00:03:15.926Z,8.80
2022-11-17T00:05:46.147Z,8.80
2022-11-17T00:08:13.308Z,8.80
2022-11-17T00:10:40.323Z,8.80
2022-11-17T00:13:28.385Z,8.80
2022-11-17T00:15:55.504Z,8.80
2022-11-17T00:18:41.605Z,8.80
2022-11-17T00:21:19.807Z,8.80
2022-11-17T00:23:47.628Z,8.80
2022-11-17T00:26:16.616Z,8.80
2022-11-17T00:28:43.718Z,8.80
2022-11-17T00:31:33.335Z,8.80
2022-11-17T00:34:07.129Z,8.80
2022-11-17T00:36:44.308Z,8.80
2022-11-17T00:39:13.333Z,8.80
2022-11-17T00:41:40.747Z,8.80
2022-11-17T00:44:08.644Z,8.80
2022-11-17T00:46:37.345Z,8.80
2022-11-17T00:49:08.449Z,8.80
2022-11-17T00:51:35.977Z,8.80
2022-11-17T00:54:04.612Z,8.80
2022-11-17T00:56:31.773Z,8.80
2022-11-17T00:58:59.436Z,8.80
2022-11-17T01:01:26.443Z,8.80
2022-11-17T01:04:05.826Z,8.80
2022-11-17T01:06:49.746Z,8.80
2022-11-17T01:09:19.835Z,8.80
2022-11-17T01:11:47.827Z,8.70
2022-11-17T01:14:18.066Z,8.70
2022-11-17T01:16:45.422Z,8.70
2022-11-17T01:19:13.772Z,8.70
2022-11-17T01:21:40.799Z,8.70
2022-11-17T01:24:08.081Z,8.60
2022-11-17T01:26:36.739Z,8.60
2022-11-17T01:29:05.689Z,8.60
2022-11-17T01:31:35.480Z,8.60
2022-11-17T01:34:05.085Z,8.60
2022-11-17T01:36:54.970Z,8.60
2022-11-17T01:39:23.873Z,8.50
2022-11-17T01:41:51.310Z,8.50
2022-11-17T01:44:44.502Z,8.50
2022-11-17T01:47:20.999Z,8.50
2022-11-17T01:49:49.999Z,8.50
2022-11-17T01:52:17.562Z,8.50
2022-11-17T01:54:46.800Z,8.50
2022-11-17T01:57:21.102Z,8.50
2022-11-17T02:00:01.669Z,8.50
2022-11-17T02:02:29.119Z,8.50
2022-11-17T02:05:00.997Z,8.40
2022-11-17T02:07:34.972Z,8.40
2022-11-17T02:10:03.293Z,8.40
2022-11-17T02:12:32.729Z,8.40
2022-11-17T02:15:01.459Z,8.40
2022-11-17T02:17:40.530Z,8.40
2022-11-17T02:20:14.642Z,8.40
2022-11-17T02:22:56.858Z,8.40
2022-11-17T02:25:57.970Z,8.40
2022-11-17T02:28:29.012Z,8.40
2022-11-17T02:31:13.937Z,8.40
2022-11-17T02:34:02.950Z,8.40
2022-11-17T02:36:49.677Z,8.50
2022-11-17T02:39:39.233Z,8.50
2022-11-17T02:42:44.367Z,8.50
2022-11-17T02:45:11.607Z,8.50
2022-11-17T02:47:43.367Z,8.50
2022-11-17T02:50:11.423Z,8.40
2022-11-17T02:52:39.069Z,8.40
2022-11-17T02:55:10.138Z,8.40
2022-11-17T02:57:39.587Z,8.30
2022-11-17T03:00:17.730Z,8.30
2022-11-17T03:02:54.134Z,8.30
2022-11-17T03:05:21.142Z,8.30
2022-11-17T03:08:17.475Z,8.30
2022-11-17T03:10:57.021Z,8.30
2022-11-17T03:13:40.428Z,8.30
2022-11-17T03:16:29.900Z,8.30
2022-11-17T03:19:18.682Z,8.30
2022-11-17T03:21:55.283Z,8.30
2022-11-17T03:24:28.747Z,8.30
2022-11-17T03:27:17.081Z,8.20
2022-11-17T03:29:49.317Z,8.20
2022-11-17T03:32:18.122Z,8.20
2022-11-17T03:34:50.899Z,8.20
2022-11-17T03:37:21.879Z,8.20
2022-11-17T03:39:55.438Z,8.20
2022-11-17T03:42:24.305Z,8.10
2022-11-17T03:44:56.195Z,8.10
2022-11-17T03:47:27.023Z,8.10
2022-11-17T03:50:09.228Z,8.10
2022-11-17T03:52:38.161Z,8.00
2022-11-17T03:55:06.229Z,8.00
2022-11-17T03:57:54.585Z,8.00
2022-11-17T04:00:21.743Z,7.90
2022-11-17T04:02:54.258Z,7.90
2022-11-17T04:05:23.335Z,7.90
2022-11-17T04:07:50.965Z,7.90
2022-11-17T04:10:26.098Z,7.80
2022-11-17T04:13:13.320Z,7.80
2022-11-17T04:15:59.398Z,7.80
2022-11-17T04:18:27.301Z,7.80
2022-11-17T04:20:56.643Z,7.70
2022-11-17T04:23:25.275Z,7.70
2022-11-17T04:26:15.096Z,7.70
2022-11-17T04:28:45.845Z,7.70
2022-11-17T04:31:27.576Z,7.70
2022-11-17T04:33:57.418Z,7.70
2022-11-17T04:36:40.827Z,7.70
2022-11-17T04:39:10.638Z,7.70
2022-11-17T04:41:57.492Z,7.60
2022-11-17T04:44:29.595Z,7.60
2022-11-17T04:46:57.286Z,7.70
2022-11-17T04:49:25.845Z,7.70
2022-11-17T04:51:53.923Z,7.60
2022-11-17T04:54:24.680Z,7.60
2022-11-17T04:56:52.751Z,7.60
2022-11-17T04:59:20.291Z,7.50
2022-11-17T05:01:47.750Z,7.50
2022-11-17T05:04:55.431Z,7.50
2022-11-17T05:07:22.429Z,7.50
2022-11-17T05:09:49.768Z,7.50
2022-11-17T05:12:35.319Z,7.50
2022-11-17T05:15:02.345Z,7.50
2022-11-17T05:17:29.534Z,7.40
2022-11-17T05:19:57.280Z,7.40
2022-11-17T05:22:43.680Z,7.50
2022-11-17T05:25:10.864Z,7.40
2022-11-17T05:27:38.286Z,7.40
2022-11-17T05:30:07.594Z,7.40
2022-11-17T05:32:34.665Z,7.40
2022-11-17T05:35:02.050Z,7.30
2022-11-17T05:37:29.227Z,7.30
2022-11-17T05:39:56.474Z,7.40
2022-11-17T05:42:23.724Z,7.40
2022-11-17T05:44:50.890Z,7.40
2022-11-17T05:47:17.873Z,7.30
2022-11-17T05:49:46.918Z,7.30
2022-11-17T05:52:13.911Z,7.30
2022-11-17T05:54:40.950Z,7.30
2022-11-17T05:57:13.251Z,7.30
2022-11-17T05:59:45.529Z,7.30
2022-11-17T06:02:51.048Z,7.30
2022-11-17T06:05:20.362Z,7.30
2022-11-17T06:07:48.343Z,7.30
2022-11-17T06:10:15.412Z,7.30
2022-11-17T06:12:42.349Z,7.20
2022-11-17T06:15:09.816Z,7.20
2022-11-17T06:17:42.257Z,7.20
2022-11-17T06:20:18.079Z,7.20
2022-11-17T06:22:48.312Z,7.20
2022-11-17T06:25:17.112Z,7.20
2022-11-17T06:27:44.799Z,7.20
2022-11-17T06:30:12.109Z,7.20
2022-11-17T06:32:43.795Z,7.20
2022-11-17T06:35:13.066Z,7.20
2022-11-17T06:37:40.050Z,7.20
2022-11-17T06:40:07.615Z,7.20
2022-11-17T06:42:53.232Z,7.20
2022-11-17T06:45:21.681Z,7.20
2022-11-17T06:47:49.655Z,7.20
2022-11-17T06:50:17.519Z,7.20
2022-11-17T06:52:46.455Z,7.10
2022-11-17T06:55:13.563Z,7.10
2022-11-17T06:57:40.927Z,7.20
2022-11-17T07:00:09.080Z,7.10
2022-11-17T07:02:37.374Z,7.10
2022-11-17T07:05:05.032Z,7.10
2022-11-17T07:07:32.235Z,7.10
2022-11-17T07:09:59.259Z,7.10
2022-11-17T07:12:26.746Z,7.10
2022-11-17T07:14:53.833Z,7.10
2022-11-17T07:17:20.981Z,7.10
2022-11-17T07:19:48.144Z,7.10
2022-11-17T07:22:19.684Z,7.10
2022-11-17T07:24:49.808Z,7.10
2022-11-17T07:27:17.107Z,7.10
2022-11-17T07:29:44.313Z,7.10
2022-11-17T07:32:13.824Z,7.10
2022-11-17T07:34:41.376Z,7.10
2022-11-17T07:37:08.619Z,7.10
2022-11-17T07:39:35.603Z,7.20
2022-11-17T07:42:02.641Z,7.20
2022-11-17T07:44:29.774Z,7.20
2022-11-17T07:46:56.775Z,7.20
2022-11-17T07:49:23.872Z,7.20
2022-11-17T07:51:51.036Z,7.20
2022-11-17T07:54:18.155Z,7.20
2022-11-17T07:56:45.305Z,7.20
2022-11-17T07:59:17.165Z,7.20
2022-11-17T08:01:46.980Z,7.20
2022-11-17T08:04:14.241Z,7.20
2022-11-17T08:06:41.409Z,7.20
2022-11-17T08:09:10.711Z,7.20
2022-11-17T08:11:37.687Z,7.20
2022-11-17T08:14:05.025Z,7.20
2022-11-17T08:16:32.366Z,7.20
2022-11-17T08:19:00.019Z,7.20
2022-11-17T08:21:27.086Z,7.20
2022-11-17T08:23:55.261Z,7.20
2022-11-17T08:26:25.168Z,7.20
2022-11-17T08:28:56.898Z,7.20
2022-11-17T08:31:25.530Z,7.30
2022-11-17T08:33:52.665Z,7.30
2022-11-17T08:36:19.811Z,7.30
2022-11-17T08:38:46.961Z,7.30
2022-11-17T08:41:13.987Z,7.30
2022-11-17T08:43:41.362Z,7.30
2022-11-17T08:46:12.818Z,7.30
2022-11-17T08:48:40.579Z,7.30
2022-11-17T08:51:08.913Z,7.30
2022-11-17T08:53:36.016Z,7.30
2022-11-17T08:56:11.036Z,7.30
2022-11-17T08:58:44.966Z,7.30
2022-11-17T09:01:15.832Z,7.30
2022-11-17T09:03:45.280Z,7.30
2022-11-17T09:06:13.574Z,7.40
2022-11-17T09:08:47.969Z,7.40
2022-11-17T09:11:15.599Z,7.40
2022-11-17T09:13:42.903Z,7.40
2022-11-17T09:16:11.633Z,7.40
2022-11-17T09:18:41.299Z,7.40
2022-11-17T09:21:15.284Z,7.40
2022-11-17T09:23:42.870Z,7.30
2022-11-17T09:26:12.772Z,7.30
2022-11-17T09:28:40.484Z,7.30
2022-11-17T09:31:13.839Z,7.30
2022-11-17T09:33:41.627Z,7.30
2022-11-17T09:36:09.500Z,7.30
2022-11-17T09:38:37.749Z,7.30
2022-11-17T09:41:16.995Z,7.30
2022-11-17T09:44:11.212Z,7.30
2022-11-17T09:47:01.558Z,7.30
2022-11-17T09:49:59.495Z,7.30
2022-11-17T09:52:32.927Z,7.30
2022-11-17T09:55:07.877Z,7.30
2022-11-17T09:57:42.619Z,7.40
2022-11-17T10:00:21.415Z,7.40
2022-11-17T10:02:54.294Z,7.40
2022-11-17T10:05:26.680Z,7.40
2022-11-17T10:07:57.473Z,7.40
2022-11-17T10:10:37.299Z,7.40
2022-11-17T10:13:10.160Z,7.40
2022-11-17T10:15:49.532Z,7.40
2022-11-17T10:18:17.056Z,7.40
2022-11-17T10:20:45.448Z,7.40
2022-11-17T10:23:18.670Z,7.40
2022-11-17T10:25:56.812Z,7.40
2022-11-17T10:28:31.166Z,7.40
2022-11-17T10:31:01.082Z,7.40
2022-11-17T10:33:37.745Z,7.30
2022-11-17T10:36:22.718Z,7.30
2022-11-17T10:38:52.193Z,7.30
2022-11-17T10:41:23.127Z,7.30
2022-11-17T10:44:03.874Z,7.40
2022-11-17T10:46:41.582Z,7.40
2022-11-17T10:49:41.516Z,7.40
2022-11-17T10:52:11.654Z,7.40
2022-11-17T10:54:39.022Z,7.40
2022-11-17T10:57:12.462Z,7.40
2022-11-17T10:59:50.759Z,7.40
2022-11-17T11:02:26.241Z,7.30
2022-11-17T11:05:15.192Z,7.30
2022-11-17T11:07:43.049Z,7.30
2022-11-17T11:10:31.497Z,7.20
2022-11-17T11:13:22.570Z,7.20
2022-11-17T11:15:49.530Z,7.20
2022-11-17T11:18:18.760Z,7.20
2022-11-17T11:21:24.278Z,7.20
2022-11-17T11:24:13.132Z,7.30
2022-11-17T11:27:03.365Z,7.30
2022-11-17T11:30:06.211Z,7.30
2022-11-17T11:32:41.442Z,7.30
2022-11-17T11:35:17.055Z,7.30
2022-11-17T11:38:23.564Z,7.30
2022-11-17T11:41:09.619Z,7.30
2022-11-17T11:43:36.986Z,7.30
2022-11-17T11:46:41.806Z,7.30
2022-11-17T11:49:49.448Z,7.30
2022-11-17T11:52:22.577Z,7.30
2022-11-17T11:54:52.993Z,7.40
2022-11-17T11:57:37.512Z,7.40
2022-11-17T12:00:17.456Z,7.40
2022-11-17T12:02:51.622Z,7.40
2022-11-17T12:05:18.462Z,7.40
2022-11-17T12:08:21.641Z,7.50
2022-11-17T12:10:58.818Z,7.40
2022-11-17T12:13:26.466Z,7.40
2022-11-17T12:16:26.808Z,7.50
2022-11-17T12:18:53.748Z,7.50
2022-11-17T12:21:25.833Z,7.40
2022-11-17T12:24:14.109Z,7.40
2022-11-17T12:26:41.724Z,7.40
2022-11-17T12:29:45.637Z,7.40
2022-11-17T12:32:45.123Z,7.40
2022-11-17T12:35:28.288Z,7.50
2022-11-17T12:38:16.898Z,7.50
2022-11-17T12:40:51.216Z,7.50
2022-11-17T12:43:25.877Z,7.50
2022-11-17T12:45:52.691Z,7.40
2022-11-17T12:48:36.227Z,7.40
2022-11-17T12:51:10.174Z,7.50
2022-11-17T12:53:56.735Z,7.50
2022-11-17T12:56:53.815Z,7.40
2022-11-17T12:59:46.684Z,7.50
2022-11-17T13:03:10.003Z,7.50
2022-11-17T13:05:38.291Z,7.40
2022-11-17T13:08:25.575Z,7.50
2022-11-17T13:11:11.686Z,7.50
2022-11-17T13:13:43.970Z,7.50
2022-11-17T13:16:21.970Z,7.50
2022-11-17T13:18:49.583Z,7.60
2022-11-17T13:21:26.010Z,7.60
2022-11-17T13:23:53.915Z,7.60
2022-11-17T13:26:26.659Z,7.60
2022-11-17T13:29:13.289Z,7.60
2022-11-17T13:31:41.035Z,7.60
2022-11-17T13:34:16.899Z,7.60
2022-11-17T13:36:58.252Z,7.60
2022-11-17T13:39:30.140Z,7.70
2022-11-17T13:42:01.291Z,7.70
2022-11-17T13:44:28.849Z,7.70
2022-11-17T13:46:56.255Z,7.70
2022-11-17T13:49:39.853Z,7.70
2022-11-17T13:52:34.284Z,7.70
2022-11-17T13:55:10.690Z,7.70
2022-11-17T13:57:37.774Z,7.80
2022-11-17T14:00:05.425Z,7.70
2022-11-17T14:02:32.961Z,7.70
2022-11-17T14:05:15.284Z,7.70
2022-11-17T14:07:43.347Z,7.80
2022-11-17T14:10:22.659Z,7.70
2022-11-17T14:13:14.123Z,7.70
2022-11-17T14:15:42.880Z,7.70
2022-11-17T14:18:25.620Z,7.70
2022-11-17T14:21:17.328Z,7.70
2022-11-17T14:23:45.101Z,7.70
2022-11-17T14:26:21.177Z,7.70
2022-11-17T14:28:49.997Z,7.70
2022-11-17T14:31:17.630Z,7.70
2022-11-17T14:33:45.361Z,7.70
2022-11-17T14:36:15.385Z,7.70
2022-11-17T14:38:45.300Z,7.70
2022-11-17T14:41:17.221Z,7.70
2022-11-17T14:43:44.716Z,7.60
2022-11-17T14:46:19.445Z,7.70
2022-11-17T14:48:46.573Z,7.60
2022-11-17T14:51:17.589Z,7.60
2022-11-17T14:53:46.216Z,7.60
2022-11-17T14:56:16.160Z,7.60
2022-11-17T14:58:43.298Z,7.60
2022-11-17T15:01:17.298Z,7.70
2022-11-17T15:03:45.013Z,7.70
2022-11-17T15:06:19.308Z,7.60
2022-11-17T15:08:47.898Z,7.70
2022-11-17T15:11:18.513Z,7.60
2022-11-17T15:13:45.674Z,7.70
2022-11-17T15:16:12.790Z,7.70
2022-11-17T15:18:39.835Z,7.70
2022-11-17T15:21:09.683Z,7.70
2022-11-17T15:23:39.058Z,7.70
2022-11-17T15:26:07.947Z,7.70
2022-11-17T15:28:35.249Z,7.70
2022-11-17T15:31:28.699Z,7.70
2022-11-17T15:33:55.722Z,7.70
2022-11-17T15:36:23.274Z,7.60
2022-11-17T15:38:50.652Z,7.60
2022-11-17T15:41:17.923Z,7.60
2022-11-17T15:43:45.393Z,7.60
2022-11-17T15:46:14.851Z,7.60
2022-11-17T15:48:43.365Z,7.60
2022-11-17T15:51:25.376Z,7.70
2022-11-17T15:53:56.542Z,7.70
2022-11-17T15:56:28.279Z,7.70
2022-11-17T15:58:57.388Z,7.70
2022-11-17T16:01:25.126Z,7.70
2022-11-17T16:03:56.455Z,7.70
2022-11-17T16:06:23.557Z,7.60
2022-11-17T16:08:50.572Z,7.70
2022-11-17T16:11:17.733Z,7.70
2022-11-17T16:13:44.779Z,7.70
2022-11-17T16:16:15.479Z,7.70
2022-11-17T16:18:42.554Z,7.70
2022-11-17T16:21:14.249Z,7.70
2022-11-17T16:23:49.127Z,7.70
2022-11-17T16:26:18.002Z,7.70
2022-11-17T16:28:47.029Z,7.70
2022-11-17T16:31:18.344Z,7.70
2022-11-17T16:33:50.354Z,7.70
2022-11-17T16:36:18.645Z,7.70
2022-11-17T16:39:02.291Z,7.70
2022-11-17T16:41:33.126Z,7.70
2022-11-17T16:44:01.134Z,7.70
2022-11-17T16:46:32.412Z,7.70
2022-11-17T16:49:08.521Z,7.70
2022-11-17T16:51:35.460Z,7.70
2022-11-17T16:54:05.508Z,7.70
2022-11-17T16:56:34.142Z,7.70
2022-11-17T16:59:02.398Z,7.70
2022-11-17T17:01:32.412Z,7.70
2022-11-17T17:04:01.716Z,7.60
2022-11-17T17:06:29.373Z,7.60
2022-11-17T17:08:59.174Z,7.70
2022-11-17T17:11:27.470Z,7.70
2022-11-17T17:13:57.810Z,7.60
2022-11-17T17:16:26.169Z,7.70
2022-11-17T17:19:01.818Z,7.70
2022-11-17T17:21:30.633Z,7.70
2022-11-17T17:23:58.056Z,7.70
2022-11-17T17:26:27.455Z,7.80
2022-11-17T17:28:56.662Z,7.80
2022-11-17T17:31:25.242Z,7.80
2022-11-17T17:33:52.704Z,7.80
2022-11-17T17:36:23.158Z,7.80
2022-11-17T17:38:55.571Z,7.80
2022-11-17T17:41:29.354Z,7.80
2022-11-17T17:44:07.709Z,7.80
2022-11-17T17:46:37.669Z,7.80
2022-11-17T17:49:05.517Z,7.80
2022-11-17T17:51:34.832Z,7.80
2022-11-17T17:54:02.238Z,7.80
2022-11-17T17:56:30.828Z,7.80
2022-11-17T17:58:58.752Z,7.80
2022-11-17T18:01:28.718Z,7.80
2022-11-17T18:04:11.307Z,7.80
2022-11-17T18:06:46.113Z,7.80
2022-11-17T18:09:15.684Z,7.80
2022-11-17T18:11:47.864Z,7.80
2022-11-17T18:14:15.584Z,7.80
2022-11-17T18:16:42.538Z,7.80
2022-11-17T18:19:14.006Z,7.80
2022-11-17T18:21:41.698Z,7.80
2022-11-17T18:24:10.580Z,7.80
2022-11-17T18:26:38.679Z,7.80
2022-11-17T18:29:09.356Z,7.80
2022-11-17T18:31:38.107Z,7.80
2022-11-17T18:34:18.043Z,7.80
2022-11-17T18:36:45.454Z,7.80
2022-11-17T18:39:15.270Z,7.80
2022-11-17T18:41:43.427Z,7.70
2022-11-17T18:44:15.926Z,7.70
2022-11-17T18:46:43.039Z,7.70
2022-11-17T18:49:10.317Z,7.70
2022-11-17T18:51:37.430Z,7.70
2022-11-17T18:54:04.749Z,7.70
2022-11-17T18:56:35.159Z,7.70
2022-11-17T18:59:02.819Z,7.70
2022-11-17T19:01:31.771Z,7.70
2022-11-17T19:04:02.767Z,7.70
2022-11-17T19:06:30.833Z,7.70
2022-11-17T19:09:03.731Z,7.70
2022-11-17T19:11:33.004Z,7.70
2022-11-17T19:14:07.334Z,7.70
2022-11-17T19:16:42.571Z,7.70
2022-11-17T19:19:14.103Z,7.70
2022-11-17T19:21:41.991Z,7.70
2022-11-17T19:24:09.372Z,7.70
2022-11-17T19:26:37.219Z,7.70
2022-11-17T19:29:14.277Z,7.60
2022-11-17T19:31:43.842Z,7.60
2022-11-17T19:34:11.675Z,7.60
2022-11-17T19:36:38.880Z,7.60
2022-11-17T19:39:06.288Z,7.60
2022-11-17T19:41:39.975Z,7.60
2022-11-17T19:44:09.091Z,7.60
2022-11-17T19:46:37.553Z,7.60
2022-11-17T19:49:06.703Z,7.60
2022-11-17T19:51:37.100Z,7.60
2022-11-17T19:54:07.439Z,7.60
2022-11-17T19:56:35.536Z,7.60
2022-11-17T19:59:09.710Z,7.60
2022-11-17T20:01:40.278Z,7.60
2022-11-17T20:04:07.517Z,7.60
2022-11-17T20:06:37.711Z,7.60
2022-11-17T20:09:09.759Z,7.50
2022-11-17T20:11:37.244Z,7.50
2022-11-17T20:14:04.743Z,7.60
2022-11-17T20:16:32.356Z,7.60
2022-11-17T20:19:01.163Z,7.50
2022-11-17T20:21:31.964Z,7.50
2022-11-17T20:23:59.926Z,7.50
2022-11-17T20:26:29.991Z,7.50
2022-11-17T20:28:58.073Z,7.50
2022-11-17T20:31:27.876Z,7.50
2022-11-17T20:33:57.673Z,7.50
2022-11-17T20:36:25.234Z,7.50
2022-11-17T20:38:54.698Z,7.50
2022-11-17T20:41:23.604Z,7.50
2022-11-17T20:43:52.822Z,7.50
2022-11-17T20:46:20.878Z,7.50
2022-11-17T20:48:48.593Z,7.50
2022-11-17T20:51:18.682Z,7.50
2022-11-17T20:53:46.005Z,7.50
2022-11-17T20:56:16.173Z,7.50
2022-11-17T20:58:43.390Z,7.50
2022-11-17T21:01:23.819Z,7.50
2022-11-17T21:03:52.401Z,7.50
2022-11-17T21:06:23.390Z,7.50
2022-11-17T21:08:51.279Z,7.50
2022-11-17T21:11:38.911Z,7.50
2022-11-17T21:14:08.648Z,7.50
2022-11-17T21:16:38.428Z,7.50
2022-11-17T21:19:06.977Z,7.50
2022-11-17T21:21:34.479Z,7.50
2022-11-17T21:24:05.878Z,7.50
2022-11-17T21:26:36.644Z,7.50
2022-11-17T21:29:06.721Z,7.50
2022-11-17T21:31:34.439Z,7.50
2022-11-17T21:34:04.863Z,7.50
2022-11-17T21:36:36.240Z,7.50
2022-11-17T21:39:03.694Z,7.50
2022-11-17T21:41:35.264Z,7.50
2022-11-17T21:44:03.527Z,7.50
2022-11-17T21:46:33.840Z,7.50
2022-11-17T21:49:01.399Z,7.50
2022-11-17T21:51:36.745Z,7.50
2022-11-17T21:54:08.379Z,7.50
2022-11-17T21:56:36.628Z,7.50
2022-11-17T21:59:11.407Z,7.50
2022-11-17T22:01:39.219Z,7.50
2022-11-17T22:04:06.410Z,7.50
2022-11-17T22:06:33.461Z,7.40
2022-11-17T22:09:01.005Z,7.50
2022-11-17T22:11:36.697Z,7.40
2022-11-17T22:14:14.103Z,7.40
2022-11-17T22:16:43.557Z,7.40
2022-11-17T22:19:12.139Z,7.40
2022-11-17T22:21:40.151Z,7.40
2022-11-17T22:24:10.153Z,7.40
2022-11-17T22:26:38.780Z,7.40
2022-11-17T22:29:08.051Z,7.40
2022-11-17T22:31:35.092Z,7.40
2022-11-17T22:34:02.015Z,7.40
2022-11-17T22:36:29.250Z,7.40
2022-11-17T22:38:56.321Z,7.40
2022-11-17T22:41:25.408Z,7.40
2022-11-17T22:43:54.929Z,7.40
2022-11-17T22:46:24.220Z,7.40
2022-11-17T22:48:52.205Z,7.40
2022-11-17T22:51:38.717Z,7.40
2022-11-17T22:54:06.880Z,7.40
2022-11-17T22:56:34.433Z,7.40
2022-11-17T22:59:05.469Z,7.40
2022-11-17T23:01:32.833Z,7.40
2022-11-17T23:04:00.342Z,7.40
2022-11-17T23:06:27.616Z,7.40
2022-11-17T23:08:56.079Z,7.40
2022-11-17T23:11:39.131Z,7.50
2022-11-17T23:14:11.069Z,7.40
2022-11-17T23:16:38.954Z,7.50
2022-11-17T23:19:06.923Z,7.50
2022-11-17T23:21:34.031Z,7.50
2022-11-17T23:24:01.493Z,7.50
2022-11-17T23:26:28.798Z,7.50
2022-11-17T23:28:55.947Z,7.50
2022-11-17T23:31:23.009Z,7.50
2022-11-17T23:33:50.208Z,7.50
2022-11-17T23:36:21.795Z,7.50
2022-11-17T23:38:50.172Z,7.50
2022-11-17T23:41:19.756Z,7.50
2022-11-17T23:43:51.358Z,7.50
2022-11-17T23:46:20.320Z,7.50
2022-11-17T23:48:47.973Z,7.60
2022-11-17T23:51:21.465Z,7.50
2022-11-17T23:53:49.571Z,7.60
2022-11-17T23:56:17.591Z,7.60
2022-11-17T23:58:45.752Z,7.60
